sensor_id;sensor_type;location;lat;lon;timestamp;temperature;humidity
67279;DHT22;54193;53.746;10.058;2022-08-07T00:01:24;10.62;88.92
67279;DHT22;54193;53.746;10.058;2022-08-07T00:04:11;10.64;89.04
67279;DHT22;54193;53.746;10.058;2022-08-07T00:06:57;10.60;89.06
67279;DHT22;54193;53.746;10.058;2022-08-07T00:09:43;10.58;89.13
67279;DHT22;54193;53.746;10.058;2022-08-07T00:12:30;10.54;89.13
67279;DHT22;54193;53.746;10.058;2022-08-07T00:15:16;10.53;89.01
67279;DHT22;54193;53.746;10.058;2022-08-07T00:18:02;10.50;88.87
67279;DHT22;54193;53.746;10.058;2022-08-07T00:20:47;10.45;88.65
67279;DHT22;54193;53.746;10.058;2022-08-07T00:23:38;10.41;88.49
67279;DHT22;54193;53.746;10.058;2022-08-07T00:26:24;10.21;88.81
67279;DHT22;54193;53.746;10.058;2022-08-07T00:29:10;9.85;89.27
67279;DHT22;54193;53.746;10.058;2022-08-07T00:31:55;9.68;89.36
67279;DHT22;54193;53.746;10.058;2022-08-07T00:34:44;9.55;89.72
67279;DHT22;54193;53.746;10.058;2022-08-07T00:37:33;9.51;90.22
67279;DHT22;54193;53.746;10.058;2022-08-07T00:40:20;9.50;90.74
67279;DHT22;54193;53.746;10.058;2022-08-07T00:43:09;9.69;90.56
67279;DHT22;54193;53.746;10.058;2022-08-07T00:45:55;9.99;90.14
67279;DHT22;54193;53.746;10.058;2022-08-07T00:48:41;9.98;89.68
67279;DHT22;54193;53.746;10.058;2022-08-07T00:51:28;9.96;89.26
67279;DHT22;54193;53.746;10.058;2022-08-07T00:54:14;9.89;89.11
67279;DHT22;54193;53.746;10.058;2022-08-07T00:57:00;9.93;89.25
67279;DHT22;54193;53.746;10.058;2022-08-07T00:59:46;9.96;89.46
67279;DHT22;54193;53.746;10.058;2022-08-07T01:02:31;9.96;89.41
67279;DHT22;54193;53.746;10.058;2022-08-07T01:05:19;9.86;89.35
67279;DHT22;54193;53.746;10.058;2022-08-07T01:08:05;9.74;89.35
67279;DHT22;54193;53.746;10.058;2022-08-07T01:10:51;9.54;89.34
67279;DHT22;54193;53.746;10.058;2022-08-07T01:13:37;9.27;90.28
67279;DHT22;54193;53.746;10.058;2022-08-07T01:16:23;8.99;90.57
67279;DHT22;54193;53.746;10.058;2022-08-07T01:19:08;9.02;90.71
67279;DHT22;54193;53.746;10.058;2022-08-07T01:21:54;9.26;90.48
67279;DHT22;54193;53.746;10.058;2022-08-07T01:24:40;9.33;90.47
67279;DHT22;54193;53.746;10.058;2022-08-07T01:27:26;9.44;90.60
67279;DHT22;54193;53.746;10.058;2022-08-07T01:30:13;9.20;90.76
67279;DHT22;54193;53.746;10.058;2022-08-07T01:32:59;8.99;90.76
67279;DHT22;54193;53.746;10.058;2022-08-07T01:35:45;8.85;90.79
67279;DHT22;54193;53.746;10.058;2022-08-07T01:38:30;8.71;91.08
67279;DHT22;54193;53.746;10.058;2022-08-07T01:41:19;8.59;91.27
67279;DHT22;54193;53.746;10.058;2022-08-07T01:44:05;8.79;91.67
67279;DHT22;54193;53.746;10.058;2022-08-07T01:46:51;8.65;91.71
67279;DHT22;54193;53.746;10.058;2022-08-07T01:49:37;8.58;92.08
67279;DHT22;54193;53.746;10.058;2022-08-07T01:52:23;8.49;92.17
67279;DHT22;54193;53.746;10.058;2022-08-07T01:55:10;8.45;92.37
67279;DHT22;54193;53.746;10.058;2022-08-07T01:57:58;8.51;92.05
67279;DHT22;54193;53.746;10.058;2022-08-07T02:00:49;8.72;91.87
67279;DHT22;54193;53.746;10.058;2022-08-07T02:03:41;9.09;91.73
67279;DHT22;54193;53.746;10.058;2022-08-07T02:06:29;9.20;91.43
67279;DHT22;54193;53.746;10.058;2022-08-07T02:09:17;9.24;91.30
67279;DHT22;54193;53.746;10.058;2022-08-07T02:12:06;9.27;91.07
67279;DHT22;54193;53.746;10.058;2022-08-07T02:15:02;9.24;90.83
67279;DHT22;54193;53.746;10.058;2022-08-07T02:17:50;9.03;90.92
67279;DHT22;54193;53.746;10.058;2022-08-07T02:20:38;8.80;91.00
67279;DHT22;54193;53.746;10.058;2022-08-07T02:23:24;8.58;90.78
67279;DHT22;54193;53.746;10.058;2022-08-07T02:26:12;8.37;91.61
67279;DHT22;54193;53.746;10.058;2022-08-07T02:28:59;8.47;92.12
67279;DHT22;54193;53.746;10.058;2022-08-07T02:31:45;8.27;92.12
67279;DHT22;54193;53.746;10.058;2022-08-07T02:34:32;8.19;92.59
67279;DHT22;54193;53.746;10.058;2022-08-07T02:37:19;8.16;93.01
67279;DHT22;54193;53.746;10.058;2022-08-07T02:40:07;8.23;93.52
67279;DHT22;54193;53.746;10.058;2022-08-07T02:42:54;8.27;93.21
67279;DHT22;54193;53.746;10.058;2022-08-07T02:45:42;8.34;92.81
67279;DHT22;54193;53.746;10.058;2022-08-07T02:48:29;8.16;92.55
67279;DHT22;54193;53.746;10.058;2022-08-07T02:51:17;8.19;92.86
67279;DHT22;54193;53.746;10.058;2022-08-07T02:54:05;8.17;92.20
67279;DHT22;54193;53.746;10.058;2022-08-07T02:56:55;8.07;92.52
67279;DHT22;54193;53.746;10.058;2022-08-07T02:59:45;7.93;92.43
67279;DHT22;54193;53.746;10.058;2022-08-07T03:02:35;7.79;92.49
67279;DHT22;54193;53.746;10.058;2022-08-07T03:05:23;7.87;92.61
67279;DHT22;54193;53.746;10.058;2022-08-07T03:08:09;8.09;92.19
67279;DHT22;54193;53.746;10.058;2022-08-07T03:10:56;8.19;92.10
67279;DHT22;54193;53.746;10.058;2022-08-07T03:13:42;8.41;92.26
67279;DHT22;54193;53.746;10.058;2022-08-07T03:16:29;8.52;92.12
67279;DHT22;54193;53.746;10.058;2022-08-07T03:19:16;8.47;91.94
67279;DHT22;54193;53.746;10.058;2022-08-07T03:22:03;8.40;92.15
67279;DHT22;54193;53.746;10.058;2022-08-07T03:24:50;8.28;91.74
67279;DHT22;54193;53.746;10.058;2022-08-07T03:27:36;8.04;92.01
67279;DHT22;54193;53.746;10.058;2022-08-07T03:30:23;7.96;92.14
67279;DHT22;54193;53.746;10.058;2022-08-07T03:33:09;7.82;92.14
67279;DHT22;54193;53.746;10.058;2022-08-07T03:35:55;7.75;92.22
67279;DHT22;54193;53.746;10.058;2022-08-07T03:38:42;7.66;92.72
67279;DHT22;54193;53.746;10.058;2022-08-07T03:41:28;7.58;92.97
67279;DHT22;54193;53.746;10.058;2022-08-07T03:44:15;7.68;92.74
67279;DHT22;54193;53.746;10.058;2022-08-07T03:47:01;7.65;93.15
67279;DHT22;54193;53.746;10.058;2022-08-07T03:49:48;7.62;93.44
67279;DHT22;54193;53.746;10.058;2022-08-07T03:52:35;7.59;93.11
67279;DHT22;54193;53.746;10.058;2022-08-07T03:55:21;7.76;92.94
67279;DHT22;54193;53.746;10.058;2022-08-07T03:58:07;7.90;92.86
67279;DHT22;54193;53.746;10.058;2022-08-07T04:00:55;8.19;92.50
67279;DHT22;54193;53.746;10.058;2022-08-07T04:03:42;8.40;92.44
67279;DHT22;54193;53.746;10.058;2022-08-07T04:06:28;8.24;92.69
67279;DHT22;54193;53.746;10.058;2022-08-07T04:09:14;8.26;92.65
67279;DHT22;54193;53.746;10.058;2022-08-07T04:12:01;8.45;92.54
67279;DHT22;54193;53.746;10.058;2022-08-07T04:14:48;8.54;92.28
67279;DHT22;54193;53.746;10.058;2022-08-07T04:17:34;8.62;92.29
67279;DHT22;54193;53.746;10.058;2022-08-07T04:20:20;8.71;92.20
67279;DHT22;54193;53.746;10.058;2022-08-07T04:23:07;8.79;92.07
67279;DHT22;54193;53.746;10.058;2022-08-07T04:25:53;8.86;91.98
67279;DHT22;54193;53.746;10.058;2022-08-07T04:28:40;8.92;91.95
67279;DHT22;54193;53.746;10.058;2022-08-07T04:31:27;8.90;91.85
67279;DHT22;54193;53.746;10.058;2022-08-07T04:34:13;8.96;91.91
67279;DHT22;54193;53.746;10.058;2022-08-07T04:36:59;9.03;91.77
67279;DHT22;54193;53.746;10.058;2022-08-07T04:39:45;9.07;91.67
67279;DHT22;54193;53.746;10.058;2022-08-07T04:42:31;9.12;91.72
67279;DHT22;54193;53.746;10.058;2022-08-07T04:45:18;8.97;91.87
67279;DHT22;54193;53.746;10.058;2022-08-07T04:48:09;8.82;91.83
67279;DHT22;54193;53.746;10.058;2022-08-07T04:51:04;8.80;92.39
67279;DHT22;54193;53.746;10.058;2022-08-07T04:54:19;8.92;92.48
67279;DHT22;54193;53.746;10.058;2022-08-07T05:00:15;8.90;92.86
67279;DHT22;54193;53.746;10.058;2022-08-07T05:06:52;9.35;92.41
67279;DHT22;54193;53.746;10.058;2022-08-07T05:09:23;9.59;92.08
67279;DHT22;54193;53.746;10.058;2022-08-07T05:12:14;9.61;92.64
67279;DHT22;54193;53.746;10.058;2022-08-07T05:15:13;9.65;92.70
67279;DHT22;54193;53.746;10.058;2022-08-07T05:18:05;9.62;92.64
67279;DHT22;54193;53.746;10.058;2022-08-07T05:20:57;9.92;92.31
67279;DHT22;54193;53.746;10.058;2022-08-07T05:24:01;10.06;92.18
67279;DHT22;54193;53.746;10.058;2022-08-07T05:26:51;10.18;92.15
67279;DHT22;54193;53.746;10.058;2022-08-07T05:29:38;10.23;92.15
67279;DHT22;54193;53.746;10.058;2022-08-07T05:32:24;10.50;92.21
67279;DHT22;54193;53.746;10.058;2022-08-07T05:35:11;10.86;92.36
67279;DHT22;54193;53.746;10.058;2022-08-07T05:37:58;11.23;92.64
67279;DHT22;54193;53.746;10.058;2022-08-07T05:40:44;11.54;92.71
67279;DHT22;54193;53.746;10.058;2022-08-07T05:43:29;11.78;92.59
67279;DHT22;54193;53.746;10.058;2022-08-07T05:46:16;11.94;92.48
67279;DHT22;54193;53.746;10.058;2022-08-07T05:49:04;12.05;92.00
67279;DHT22;54193;53.746;10.058;2022-08-07T05:51:50;12.20;92.00
67279;DHT22;54193;53.746;10.058;2022-08-07T05:54:36;12.36;90.96
67279;DHT22;54193;53.746;10.058;2022-08-07T05:57:23;12.50;90.96
67279;DHT22;54193;53.746;10.058;2022-08-07T06:00:09;12.67;90.12
67279;DHT22;54193;53.746;10.058;2022-08-07T06:02:57;12.78;88.74
67279;DHT22;54193;53.746;10.058;2022-08-07T06:05:45;12.91;88.77
67279;DHT22;54193;53.746;10.058;2022-08-07T06:08:32;13.05;88.22
67279;DHT22;54193;53.746;10.058;2022-08-07T06:11:18;13.15;85.83
67279;DHT22;54193;53.746;10.058;2022-08-07T06:14:04;13.27;86.48
67279;DHT22;54193;53.746;10.058;2022-08-07T06:16:51;13.52;85.01
67279;DHT22;54193;53.746;10.058;2022-08-07T06:19:37;13.63;84.55
67279;DHT22;54193;53.746;10.058;2022-08-07T06:22:24;13.88;84.07
67279;DHT22;54193;53.746;10.058;2022-08-07T06:25:10;14.37;82.16
67279;DHT22;54193;53.746;10.058;2022-08-07T06:28:06;14.79;78.58
67279;DHT22;54193;53.746;10.058;2022-08-07T06:30:52;14.88;78.04
67279;DHT22;54193;53.746;10.058;2022-08-07T06:33:38;15.36;78.13
67279;DHT22;54193;53.746;10.058;2022-08-07T06:36:24;15.65;75.87
67279;DHT22;54193;53.746;10.058;2022-08-07T06:39:12;15.71;74.33
67279;DHT22;54193;53.746;10.058;2022-08-07T06:42:16;16.11;73.97
67279;DHT22;54193;53.746;10.058;2022-08-07T06:45:09;16.38;72.34
67279;DHT22;54193;53.746;10.058;2022-08-07T06:47:56;16.26;72.92
67279;DHT22;54193;53.746;10.058;2022-08-07T06:50:42;16.48;71.95
67279;DHT22;54193;53.746;10.058;2022-08-07T06:53:30;16.55;69.86
67279;DHT22;54193;53.746;10.058;2022-08-07T06:56:16;16.73;70.19
67279;DHT22;54193;53.746;10.058;2022-08-07T06:59:32;17.39;69.07
67279;DHT22;54193;53.746;10.058;2022-08-07T07:02:21;17.35;68.05
67279;DHT22;54193;53.746;10.058;2022-08-07T07:05:07;17.34;67.81
67279;DHT22;54193;53.746;10.058;2022-08-07T07:07:53;18.11;65.69
67279;DHT22;54193;53.746;10.058;2022-08-07T07:10:39;18.21;66.76
67279;DHT22;54193;53.746;10.058;2022-08-07T07:13:39;18.20;65.15
67279;DHT22;54193;53.746;10.058;2022-08-07T07:16:26;18.45;65.07
67279;DHT22;54193;53.746;10.058;2022-08-07T07:19:13;17.72;65.03
67279;DHT22;54193;53.746;10.058;2022-08-07T07:22:00;18.24;64.51
67279;DHT22;54193;53.746;10.058;2022-08-07T07:24:46;18.35;63.32
67279;DHT22;54193;53.746;10.058;2022-08-07T07:27:35;18.61;64.65
67279;DHT22;54193;53.746;10.058;2022-08-07T07:30:30;19.30;62.50
67279;DHT22;54193;53.746;10.058;2022-08-07T07:33:18;19.34;60.35
67279;DHT22;54193;53.746;10.058;2022-08-07T07:36:05;19.21;60.97
67279;DHT22;54193;53.746;10.058;2022-08-07T07:38:52;19.47;61.44
67279;DHT22;54193;53.746;10.058;2022-08-07T07:41:39;19.32;59.97
67279;DHT22;54193;53.746;10.058;2022-08-07T07:44:27;19.48;62.92
67279;DHT22;54193;53.746;10.058;2022-08-07T07:47:15;19.81;59.12
67279;DHT22;54193;53.746;10.058;2022-08-07T07:50:05;19.85;61.34
67279;DHT22;54193;53.746;10.058;2022-08-07T07:52:52;20.10;58.20
67279;DHT22;54193;53.746;10.058;2022-08-07T07:55:39;20.08;60.96
67279;DHT22;54193;53.746;10.058;2022-08-07T07:58:28;20.06;59.70
67279;DHT22;54193;53.746;10.058;2022-08-07T08:01:16;19.89;60.12
67279;DHT22;54193;53.746;10.058;2022-08-07T08:04:03;19.47;59.97
67279;DHT22;54193;53.746;10.058;2022-08-07T08:06:52;19.74;61.01
67279;DHT22;54193;53.746;10.058;2022-08-07T08:09:38;20.58;58.17
67279;DHT22;54193;53.746;10.058;2022-08-07T08:12:25;21.29;53.52
67279;DHT22;54193;53.746;10.058;2022-08-07T08:15:10;21.78;53.60
67279;DHT22;54193;53.746;10.058;2022-08-07T08:17:57;21.50;50.87
67279;DHT22;54193;53.746;10.058;2022-08-07T08:20:43;21.80;53.28
67279;DHT22;54193;53.746;10.058;2022-08-07T08:23:32;19.99;54.68
67279;DHT22;54193;53.746;10.058;2022-08-07T08:26:36;20.91;55.51
67279;DHT22;54193;53.746;10.058;2022-08-07T08:29:52;21.53;50.87
67279;DHT22;54193;53.746;10.058;2022-08-07T08:32:43;20.79;50.78
67279;DHT22;54193;53.746;10.058;2022-08-07T08:35:33;20.91;50.37
67279;DHT22;54193;53.746;10.058;2022-08-07T08:38:21;21.36;46.85
67279;DHT22;54193;53.746;10.058;2022-08-07T08:44:33;20.82;51.97
67279;DHT22;54193;53.746;10.058;2022-08-07T08:50:38;22.65;49.44
67279;DHT22;54193;53.746;10.058;2022-08-07T08:53:43;21.61;54.84
67279;DHT22;54193;53.746;10.058;2022-08-07T08:56:59;22.15;49.38
67279;DHT22;54193;53.746;10.058;2022-08-07T08:59:53;21.77;51.20
67279;DHT22;54193;53.746;10.058;2022-08-07T09:03:12;22.81;47.44
67279;DHT22;54193;53.746;10.058;2022-08-07T09:06:20;22.88;46.48
67279;DHT22;54193;53.746;10.058;2022-08-07T09:09:15;22.01;49.37
67279;DHT22;54193;53.746;10.058;2022-08-07T09:12:11;21.94;51.44
67279;DHT22;54193;53.746;10.058;2022-08-07T09:15:04;23.28;47.02
67279;DHT22;54193;53.746;10.058;2022-08-07T09:18:13;24.24;43.32
67279;DHT22;54193;53.746;10.058;2022-08-07T09:27:28;22.81;48.38
67279;DHT22;54193;53.746;10.058;2022-08-07T09:30:15;23.45;46.82
67279;DHT22;54193;53.746;10.058;2022-08-07T09:33:11;24.31;42.52
67279;DHT22;54193;53.746;10.058;2022-08-07T09:36:05;21.84;44.60
67279;DHT22;54193;53.746;10.058;2022-08-07T09:42:10;23.11;43.22
67279;DHT22;54193;53.746;10.058;2022-08-07T09:45:05;21.71;46.13
67279;DHT22;54193;53.746;10.058;2022-08-07T09:50:59;24.04;40.92
67279;DHT22;54193;53.746;10.058;2022-08-07T09:53:50;25.21;44.46
67279;DHT22;54193;53.746;10.058;2022-08-07T10:00:02;22.16;44.17
67279;DHT22;54193;53.746;10.058;2022-08-07T10:09:38;23.57;40.64
67279;DHT22;54193;53.746;10.058;2022-08-07T10:15:37;26.01;42.83
67279;DHT22;54193;53.746;10.058;2022-08-07T10:21:42;22.68;47.61
67279;DHT22;54193;53.746;10.058;2022-08-07T10:24:50;22.53;42.98
67279;DHT22;54193;53.746;10.058;2022-08-07T10:37:01;21.73;45.99
67279;DHT22;54193;53.746;10.058;2022-08-07T10:40:00;22.22;47.65
67279;DHT22;54193;53.746;10.058;2022-08-07T10:43:06;21.39;47.46
67279;DHT22;54193;53.746;10.058;2022-08-07T10:45:57;20.52;47.14
67279;DHT22;54193;53.746;10.058;2022-08-07T10:49:22;20.22;47.87
67279;DHT22;54193;53.746;10.058;2022-08-07T10:58:33;21.37;47.49
67279;DHT22;54193;53.746;10.058;2022-08-07T11:01:40;21.53;48.53
67279;DHT22;54193;53.746;10.058;2022-08-07T11:05:01;21.55;48.77
67279;DHT22;54193;53.746;10.058;2022-08-07T11:07:58;21.33;46.07
67279;DHT22;54193;53.746;10.058;2022-08-07T11:11:07;21.54;47.03
67279;DHT22;54193;53.746;10.058;2022-08-07T11:14:46;21.19;46.12
67279;DHT22;54193;53.746;10.058;2022-08-07T11:17:31;20.99;46.96
67279;DHT22;54193;53.746;10.058;2022-08-07T11:20:30;21.16;47.22
67279;DHT22;54193;53.746;10.058;2022-08-07T11:23:24;21.63;46.68
67279;DHT22;54193;53.746;10.058;2022-08-07T11:32:46;21.49;46.58
67279;DHT22;54193;53.746;10.058;2022-08-07T11:36:07;21.42;46.49
67279;DHT22;54193;53.746;10.058;2022-08-07T11:42:42;20.68;49.92
67279;DHT22;54193;53.746;10.058;2022-08-07T11:48:25;21.03;48.69
67279;DHT22;54193;53.746;10.058;2022-08-07T11:54:33;21.55;46.23
67279;DHT22;54193;53.746;10.058;2022-08-07T11:57:41;21.80;45.61
67279;DHT22;54193;53.746;10.058;2022-08-07T12:00:37;22.23;45.00
67279;DHT22;54193;53.746;10.058;2022-08-07T12:03:56;21.46;43.99
67279;DHT22;54193;53.746;10.058;2022-08-07T12:06:55;21.30;47.94
67279;DHT22;54193;53.746;10.058;2022-08-07T12:12:44;21.30;47.40
67279;DHT22;54193;53.746;10.058;2022-08-07T12:15:38;21.98;46.67
67279;DHT22;54193;53.746;10.058;2022-08-07T12:21:36;21.61;45.10
67279;DHT22;54193;53.746;10.058;2022-08-07T12:24:40;21.90;45.15
67279;DHT22;54193;53.746;10.058;2022-08-07T12:27:57;21.88;44.95
67279;DHT22;54193;53.746;10.058;2022-08-07T12:30:48;22.33;44.56
67279;DHT22;54193;53.746;10.058;2022-08-07T12:33:36;21.65;44.69
67279;DHT22;54193;53.746;10.058;2022-08-07T12:36:23;21.05;45.00
67279;DHT22;54193;53.746;10.058;2022-08-07T12:39:11;21.43;46.23
67279;DHT22;54193;53.746;10.058;2022-08-07T12:41:58;22.09;45.54
67279;DHT22;54193;53.746;10.058;2022-08-07T12:44:46;22.43;47.25
67279;DHT22;54193;53.746;10.058;2022-08-07T12:50:55;22.54;44.56
67279;DHT22;54193;53.746;10.058;2022-08-07T12:57:21;21.98;44.90
67279;DHT22;54193;53.746;10.058;2022-08-07T13:00:09;21.82;44.50
67279;DHT22;54193;53.746;10.058;2022-08-07T13:09:21;22.60;45.59
67279;DHT22;54193;53.746;10.058;2022-08-07T13:12:31;22.56;45.42
67279;DHT22;54193;53.746;10.058;2022-08-07T13:15:31;22.29;43.89
67279;DHT22;54193;53.746;10.058;2022-08-07T13:21:29;22.39;46.95
67279;DHT22;54193;53.746;10.058;2022-08-07T13:24:43;22.39;46.35
67279;DHT22;54193;53.746;10.058;2022-08-07T13:27:35;22.80;44.93
67279;DHT22;54193;53.746;10.058;2022-08-07T13:30:23;22.50;42.99
67279;DHT22;54193;53.746;10.058;2022-08-07T13:36:40;21.75;45.57
67279;DHT22;54193;53.746;10.058;2022-08-07T13:39:44;21.46;45.31
67279;DHT22;54193;53.746;10.058;2022-08-07T13:42:34;21.54;46.08
67279;DHT22;54193;53.746;10.058;2022-08-07T13:45:20;21.50;44.52
67279;DHT22;54193;53.746;10.058;2022-08-07T13:48:09;21.90;43.88
67279;DHT22;54193;53.746;10.058;2022-08-07T13:50:57;22.02;45.30
67279;DHT22;54193;53.746;10.058;2022-08-07T13:53:50;22.61;45.90
67279;DHT22;54193;53.746;10.058;2022-08-07T13:56:38;22.95;45.09
67279;DHT22;54193;53.746;10.058;2022-08-07T13:59:26;22.81;45.40
67279;DHT22;54193;53.746;10.058;2022-08-07T14:02:22;22.63;44.95
67279;DHT22;54193;53.746;10.058;2022-08-07T14:05:12;22.46;44.14
67279;DHT22;54193;53.746;10.058;2022-08-07T14:07:59;22.54;43.86
67279;DHT22;54193;53.746;10.058;2022-08-07T14:10:48;22.57;44.70
67279;DHT22;54193;53.746;10.058;2022-08-07T14:13:36;22.87;46.13
67279;DHT22;54193;53.746;10.058;2022-08-07T14:16:25;23.33;42.05
67279;DHT22;54193;53.746;10.058;2022-08-07T14:19:19;23.49;41.59
67279;DHT22;54193;53.746;10.058;2022-08-07T14:22:08;23.62;44.60
67279;DHT22;54193;53.746;10.058;2022-08-07T14:25:08;23.08;44.14
67279;DHT22;54193;53.746;10.058;2022-08-07T14:27:54;22.80;44.72
67279;DHT22;54193;53.746;10.058;2022-08-07T14:30:46;22.50;44.90
67279;DHT22;54193;53.746;10.058;2022-08-07T14:33:34;22.16;45.19
67279;DHT22;54193;53.746;10.058;2022-08-07T14:36:21;21.53;46.59
67279;DHT22;54193;53.746;10.058;2022-08-07T14:39:09;21.73;45.80
67279;DHT22;54193;53.746;10.058;2022-08-07T14:41:57;21.95;47.16
67279;DHT22;54193;53.746;10.058;2022-08-07T14:44:49;21.98;46.07
67279;DHT22;54193;53.746;10.058;2022-08-07T14:47:38;22.12;45.07
67279;DHT22;54193;53.746;10.058;2022-08-07T14:50:25;22.06;45.14
67279;DHT22;54193;53.746;10.058;2022-08-07T14:53:18;22.08;45.84
67279;DHT22;54193;53.746;10.058;2022-08-07T14:56:06;21.87;45.21
67279;DHT22;54193;53.746;10.058;2022-08-07T14:58:55;21.97;49.30
67279;DHT22;54193;53.746;10.058;2022-08-07T15:01:44;22.06;47.75
67279;DHT22;54193;53.746;10.058;2022-08-07T15:04:30;22.05;47.19
67279;DHT22;54193;53.746;10.058;2022-08-07T15:07:18;22.05;46.23
67279;DHT22;54193;53.746;10.058;2022-08-07T15:10:06;22.15;46.18
67279;DHT22;54193;53.746;10.058;2022-08-07T15:13:00;22.12;45.43
67279;DHT22;54193;53.746;10.058;2022-08-07T15:15:50;22.23;44.91
67279;DHT22;54193;53.746;10.058;2022-08-07T15:18:42;22.16;45.30
67279;DHT22;54193;53.746;10.058;2022-08-07T15:21:32;22.09;45.61
67279;DHT22;54193;53.746;10.058;2022-08-07T15:24:22;22.36;47.40
67279;DHT22;54193;53.746;10.058;2022-08-07T15:27:21;22.37;45.29
67279;DHT22;54193;53.746;10.058;2022-08-07T15:30:08;22.50;45.72
67279;DHT22;54193;53.746;10.058;2022-08-07T15:32:54;22.25;45.36
67279;DHT22;54193;53.746;10.058;2022-08-07T15:35:41;22.67;45.46
67279;DHT22;54193;53.746;10.058;2022-08-07T15:38:30;22.64;44.03
67279;DHT22;54193;53.746;10.058;2022-08-07T15:41:16;22.63;44.75
67279;DHT22;54193;53.746;10.058;2022-08-07T15:44:09;22.71;45.75
67279;DHT22;54193;53.746;10.058;2022-08-07T15:46:58;22.50;45.27
67279;DHT22;54193;53.746;10.058;2022-08-07T15:49:48;21.84;45.91
67279;DHT22;54193;53.746;10.058;2022-08-07T15:52:37;22.10;45.28
67279;DHT22;54193;53.746;10.058;2022-08-07T15:55:24;22.32;47.14
67279;DHT22;54193;53.746;10.058;2022-08-07T15:58:15;22.09;44.67
67279;DHT22;54193;53.746;10.058;2022-08-07T16:01:03;21.44;46.50
67279;DHT22;54193;53.746;10.058;2022-08-07T16:03:53;21.18;48.48
67279;DHT22;54193;53.746;10.058;2022-08-07T16:09:47;20.79;50.23
67279;DHT22;54193;53.746;10.058;2022-08-07T16:16:01;20.52;50.93
67279;DHT22;54193;53.746;10.058;2022-08-07T16:22:38;20.89;49.03
67279;DHT22;54193;53.746;10.058;2022-08-07T16:25:40;20.95;49.72
67279;DHT22;54193;53.746;10.058;2022-08-07T16:32:09;21.19;49.14
67279;DHT22;54193;53.746;10.058;2022-08-07T16:44:23;20.85;51.51
67279;DHT22;54193;53.746;10.058;2022-08-07T16:56:18;20.88;50.14
67279;DHT22;54193;53.746;10.058;2022-08-07T16:59:07;20.89;50.46
67279;DHT22;54193;53.746;10.058;2022-08-07T17:08:49;20.67;50.20
67279;DHT22;54193;53.746;10.058;2022-08-07T17:11:48;20.57;50.22
67279;DHT22;54193;53.746;10.058;2022-08-07T17:14:56;20.57;51.78
67279;DHT22;54193;53.746;10.058;2022-08-07T17:20:38;20.52;51.73
67279;DHT22;54193;53.746;10.058;2022-08-07T17:26:38;20.23;52.25
67279;DHT22;54193;53.746;10.058;2022-08-07T17:35:58;19.83;53.87
67279;DHT22;54193;53.746;10.058;2022-08-07T17:39:08;19.68;53.82
67279;DHT22;54193;53.746;10.058;2022-08-07T17:42:00;19.58;54.04
67279;DHT22;54193;53.746;10.058;2022-08-07T17:44:50;19.50;54.53
67279;DHT22;54193;53.746;10.058;2022-08-07T17:56:58;19.26;56.11
67279;DHT22;54193;53.746;10.058;2022-08-07T17:59:49;19.19;56.59
67279;DHT22;54193;53.746;10.058;2022-08-07T18:05:43;19.04;57.70
67279;DHT22;54193;53.746;10.058;2022-08-07T18:11:36;18.95;58.38
67279;DHT22;54193;53.746;10.058;2022-08-07T18:14:53;18.76;58.82
67279;DHT22;54193;53.746;10.058;2022-08-07T18:18:00;18.66;59.54
67279;DHT22;54193;53.746;10.058;2022-08-07T18:21:04;18.56;59.39
67279;DHT22;54193;53.746;10.058;2022-08-07T18:24:27;18.44;60.00
67279;DHT22;54193;53.746;10.058;2022-08-07T18:30:23;18.43;60.90
67279;DHT22;54193;53.746;10.058;2022-08-07T18:39:58;18.33;61.20
67279;DHT22;54193;53.746;10.058;2022-08-07T18:43:11;18.26;61.58
67279;DHT22;54193;53.746;10.058;2022-08-07T18:49:31;18.09;62.28
67279;DHT22;54193;53.746;10.058;2022-08-07T19:01:45;17.83;64.60
67279;DHT22;54193;53.746;10.058;2022-08-07T19:04:41;17.66;64.66
67279;DHT22;54193;53.746;10.058;2022-08-07T19:10:32;17.39;67.29
67279;DHT22;54193;53.746;10.058;2022-08-07T19:13:54;17.28;68.89
67279;DHT22;54193;53.746;10.058;2022-08-07T19:16:50;17.10;68.90
67279;DHT22;54193;53.746;10.058;2022-08-07T19:23:01;16.76;71.04
67279;DHT22;54193;53.746;10.058;2022-08-07T19:25:49;16.58;70.03
67279;DHT22;54193;53.746;10.058;2022-08-07T19:28:42;16.48;71.73
67279;DHT22;54193;53.746;10.058;2022-08-07T19:31:32;16.41;71.26
67279;DHT22;54193;53.746;10.058;2022-08-07T19:34:23;16.18;72.23
67279;DHT22;54193;53.746;10.058;2022-08-07T19:37:11;16.07;73.28
67279;DHT22;54193;53.746;10.058;2022-08-07T19:40:00;15.98;73.51
67279;DHT22;54193;53.746;10.058;2022-08-07T19:42:47;15.90;73.50
67279;DHT22;54193;53.746;10.058;2022-08-07T19:45:33;15.83;74.09
67279;DHT22;54193;53.746;10.058;2022-08-07T19:48:33;15.73;74.51
67279;DHT22;54193;53.746;10.058;2022-08-07T19:51:22;15.62;74.74
67279;DHT22;54193;53.746;10.058;2022-08-07T19:54:13;15.50;75.22
67279;DHT22;54193;53.746;10.058;2022-08-07T19:57:01;15.48;75.54
67279;DHT22;54193;53.746;10.058;2022-08-07T19:59:52;15.46;75.78
67279;DHT22;54193;53.746;10.058;2022-08-07T20:05:29;15.40;75.59
67279;DHT22;54193;53.746;10.058;2022-08-07T20:08:21;15.17;76.08
67279;DHT22;54193;53.746;10.058;2022-08-07T20:11:13;15.02;76.90
67279;DHT22;54193;53.746;10.058;2022-08-07T20:14:00;14.88;76.19
67279;DHT22;54193;53.746;10.058;2022-08-07T20:16:47;14.74;76.00
67279;DHT22;54193;53.746;10.058;2022-08-07T20:19:36;14.63;77.40
67279;DHT22;54193;53.746;10.058;2022-08-07T20:22:25;14.66;76.46
67279;DHT22;54193;53.746;10.058;2022-08-07T20:25:13;14.52;76.76
67279;DHT22;54193;53.746;10.058;2022-08-07T20:28:07;14.74;76.28
67279;DHT22;54193;53.746;10.058;2022-08-07T20:30:54;14.52;76.37
67279;DHT22;54193;53.746;10.058;2022-08-07T20:33:44;14.45;76.45
67279;DHT22;54193;53.746;10.058;2022-08-07T20:36:32;14.46;78.54
67279;DHT22;54193;53.746;10.058;2022-08-07T20:39:23;14.45;78.26
67279;DHT22;54193;53.746;10.058;2022-08-07T20:42:12;14.55;78.99
67279;DHT22;54193;53.746;10.058;2022-08-07T20:44:59;14.53;78.84
67279;DHT22;54193;53.746;10.058;2022-08-07T20:47:45;14.55;78.73
67279;DHT22;54193;53.746;10.058;2022-08-07T20:50:33;14.52;78.43
67279;DHT22;54193;53.746;10.058;2022-08-07T20:53:19;14.28;78.30
67279;DHT22;54193;53.746;10.058;2022-08-07T20:56:05;13.97;79.00
67279;DHT22;54193;53.746;10.058;2022-08-07T20:58:54;13.84;79.35
67279;DHT22;54193;53.746;10.058;2022-08-07T21:01:41;13.94;79.22
67279;DHT22;54193;53.746;10.058;2022-08-07T21:04:28;13.88;78.95
67279;DHT22;54193;53.746;10.058;2022-08-07T21:07:14;13.75;80.11